Time;durP1;ratioP1;P1;durP2;ratioP2;P2;SDS_P1;SDS_P2;PMS_P1;PMS_P2;Temp;Humidity;BMP_temperature;BMP_pressure;BME280_temperature;BME280_humidity;BME280_pressure;Samples;Min_cycle;Max_cycle;Signal;HPM_P1;HPM_P2
2021/11/27 00:05:42;;;;;;;0.20;0.10;;;8.20;99.90;;;;;;20734559;28;20262;-71
2021/11/27 00:15:48;;;;;;;0.20;0.20;;;8.20;99.90;;;;;;20734352;28;20202;-72
2021/11/27 00:25:53;;;;;;;0.20;0.10;;;8.00;99.90;;;;;;20749838;28;20589;-71
2021/11/27 00:35:58;;;;;;;0.20;0.10;;;7.90;99.90;;;;;;20765666;28;20257;-72
2021/11/27 00:46:02;;;;;;;0.20;0.10;;;7.90;99.90;;;;;;20746431;28;20230;-72
2021/11/27 00:56:09;;;;;;;0.20;0.20;;;8.20;99.90;;;;;;20748018;28;20622;-72
2021/11/27 01:06:16;;;;;;;0.20;0.10;;;7.80;99.90;;;;;;20814439;23;20346;-75
2021/11/27 01:16:25;;;;;;;0.20;0.10;;;7.50;99.90;;;;;;20830402;28;20202;-76
2021/11/27 01:26:29;;;;;;;0.20;0.10;;;7.60;99.90;;;;;;20830070;28;20229;-76
2021/11/27 01:36:34;;;;;;;0.20;0.10;;;7.70;99.90;;;;;;20825177;28;20182;-75
2021/11/27 01:46:39;;;;;;;0.20;0.10;;;7.40;99.90;;;;;;20834415;28;20248;-75
2021/11/27 01:56:46;;;;;;;0.20;0.10;;;7.50;99.90;;;;;;20852573;28;20205;-74
2021/11/27 02:06:50;;;;;;;0.20;0.10;;;7.20;99.90;;;;;;20782860;23;20285;-70
2021/11/27 02:16:56;;;;;;;0.20;0.10;;;7.10;99.90;;;;;;20741969;28;20225;-68
2021/11/27 02:27:02;;;;;;;0.20;0.10;;;6.90;99.90;;;;;;20742076;28;20202;-71
2021/11/27 02:37:07;;;;;;;0.20;0.10;;;6.90;99.90;;;;;;20742484;28;20283;-70
2021/11/27 02:47:12;;;;;;;0.20;0.10;;;6.70;99.90;;;;;;20738485;28;20202;-69
2021/11/27 02:57:16;;;;;;;0.20;0.10;;;6.60;99.90;;;;;;20722979;28;20215;-69
2021/11/27 03:07:21;;;;;;;0.20;0.10;;;6.40;99.90;;;;;;20740327;28;20230;-70
2021/11/27 03:17:25;;;;;;;0.20;0.10;;;6.50;99.90;;;;;;20738964;28;20261;-70
2021/11/27 03:27:30;;;;;;;0.20;0.10;;;6.40;99.90;;;;;;20738272;28;20205;-70
2021/11/27 03:37:34;;;;;;;0.20;0.10;;;6.30;99.90;;;;;;20737195;28;20254;-70
2021/11/27 03:47:55;;;;;;;0.20;0.10;;;6.80;99.90;;;;;;20734878;28;20237;-70
2021/11/27 03:57:58;;;;;;;0.20;0.10;;;6.30;99.90;;;;;;20735685;28;20269;-70
2021/11/27 04:08:04;;;;;;;0.20;0.10;;;5.80;99.90;;;;;;20736591;28;20241;-70
2021/11/27 04:18:07;;;;;;;0.20;0.10;;;5.90;99.90;;;;;;20736376;28;20313;-71
2021/11/27 04:28:13;;;;;;;0.20;0.10;;;5.80;99.90;;;;;;20734328;28;20217;-70
2021/11/27 04:38:17;;;;;;;0.20;0.10;;;5.70;99.90;;;;;;20735193;28;20226;-71
2021/11/27 04:48:22;;;;;;;0.20;0.10;;;5.60;99.90;;;;;;20735025;28;20199;-72
2021/11/27 04:58:26;;;;;;;0.20;0.10;;;6.20;99.90;;;;;;20734222;28;20234;-71
2021/11/27 05:08:31;;;;;;;0.20;0.10;;;6.30;99.90;;;;;;20742723;28;20257;-70
2021/11/27 05:18:35;;;;;;;0.20;0.10;;;6.90;99.90;;;;;;20747757;28;20253;-70
2021/11/27 05:28:41;;;;;;;0.20;0.10;;;7.30;99.90;;;;;;20747684;28;20203;-70
2021/11/27 05:38:46;;;;;;;0.20;0.10;;;7.40;99.90;;;;;;20747386;28;20215;-71
2021/11/27 05:48:51;;;;;;;0.20;0.10;;;7.60;99.90;;;;;;20728454;28;20294;-71
2021/11/27 05:58:56;;;;;;;0.20;0.10;;;7.80;99.90;;;;;;20745492;28;20238;-71
2021/11/27 06:09:01;;;;;;;0.20;0.10;;;8.00;99.90;;;;;;20744556;28;20326;-71
2021/11/27 06:19:05;;;;;;;0.20;0.10;;;7.80;99.90;;;;;;20742810;28;20229;-71
2021/11/27 06:29:10;;;;;;;0.20;0.10;;;7.50;99.90;;;;;;20742915;28;20611;-71
2021/11/27 06:39:14;;;;;;;0.20;0.10;;;7.50;99.90;;;;;;20741126;28;20222;-71
2021/11/27 06:49:19;;;;;;;0.20;0.10;;;7.40;99.90;;;;;;20739088;28;20206;-73
2021/11/27 06:59:23;;;;;;;0.20;0.10;;;7.60;99.90;;;;;;20740328;28;20227;-72
2021/11/27 07:09:28;;;;;;;0.20;0.10;;;7.90;99.90;;;;;;20738931;28;20300;-71
2021/11/27 07:19:32;;;;;;;0.20;0.10;;;8.20;99.90;;;;;;20738617;28;20237;-71
2021/11/27 07:29:39;;;;;;;0.47;0.47;;;8.20;99.90;;;;;;20737470;28;20281;-70
2021/11/27 07:39:42;;;;;;;0.20;0.10;;;8.30;99.90;;;;;;20736852;28;20250;-71
2021/11/27 07:49:47;;;;;;;0.20;0.10;;;8.60;99.90;;;;;;20736545;28;20555;-71
2021/11/27 07:59:51;;;;;;;0.20;0.10;;;9.00;99.90;;;;;;20734749;28;20314;-70
2021/11/27 08:09:56;;;;;;;0.20;0.10;;;9.00;99.90;;;;;;20735358;28;20229;-68
2021/11/27 08:20:00;;;;;;;0.20;0.10;;;9.30;99.90;;;;;;20732890;28;20272;-70
2021/11/27 08:30:09;;;;;;;0.20;0.10;;;9.70;99.90;;;;;;20732939;28;20245;-70
2021/11/27 08:40:14;;;;;;;0.20;0.10;;;9.70;99.90;;;;;;20737138;28;20325;-69
2021/11/27 08:50:20;;;;;;;0.20;0.10;;;9.90;99.90;;;;;;20745819;28;20211;-68
2021/11/27 09:00:26;;;;;;;0.20;0.10;;;10.20;99.90;;;;;;20746247;28;20652;-70
2021/11/27 09:10:32;;;;;;;0.20;0.10;;;10.50;99.90;;;;;;20746640;28;20645;-72
2021/11/27 09:20:36;;;;;;;0.20;0.10;;;10.70;99.90;;;;;;20744277;28;20241;-70
2021/11/27 09:30:41;;;;;;;0.40;0.40;;;10.80;99.90;;;;;;20745223;28;20573;-71
2021/11/27 09:40:45;;;;;;;0.20;0.10;;;10.50;99.90;;;;;;20743362;28;20317;-69
2021/11/27 09:50:53;;;;;;;0.20;0.10;;;10.60;99.90;;;;;;20743529;28;20559;-68
2021/11/27 10:00:58;;;;;;;0.20;0.10;;;10.70;99.90;;;;;;20740850;28;20297;-69
2021/11/27 10:11:04;;;;;;;0.20;0.10;;;11.10;99.90;;;;;;20741149;28;20199;-69
2021/11/27 10:21:20;;;;;;;0.20;0.10;;;11.80;99.90;;;;;;20740835;28;20223;-68
2021/11/27 10:31:30;;;;;;;0.73;0.53;;;12.70;99.90;;;;;;20739770;28;20198;-67
2021/11/27 10:41:37;;;;;;;0.20;0.00;;;13.20;99.90;;;;;;20738805;28;20233;-67
2021/11/27 10:51:42;;;;;;;0.20;0.10;;;13.40;99.90;;;;;;20733681;28;20207;-69
2021/11/27 11:02:03;;;;;;;0.20;0.10;;;13.90;99.90;;;;;;20736960;28;20796;-69
2021/11/27 11:12:08;;;;;;;0.20;0.10;;;14.10;99.90;;;;;;20735247;28;20201;-66
2021/11/27 11:22:16;;;;;;;0.20;0.20;;;14.40;99.90;;;;;;20701254;28;20320;-68
2021/11/27 11:32:27;;;;;;;0.40;0.40;;;14.40;99.90;;;;;;20717354;28;20281;-68
2021/11/27 11:42:31;;;;;;;0.20;0.10;;;14.40;99.90;;;;;;20716167;28;20219;-69
2021/11/27 11:52:45;;;;;;;0.20;0.10;;;14.80;99.90;;;;;;20715397;28;20226;-66
2021/11/27 12:02:49;;;;;;;0.20;0.10;;;12.90;99.90;;;;;;20732764;28;20706;-66
2021/11/27 12:13:18;;;;;;;0.20;0.10;;;14.70;99.90;;;;;;20732702;28;20238;-67
2021/11/27 12:23:42;;;;;;;0.20;0.10;;;13.70;99.90;;;;;;20745628;28;20218;-68
2021/11/27 12:33:50;;;;;;;0.20;0.10;;;14.60;99.90;;;;;;20732962;28;20723;-68
2021/11/27 12:44:18;;;;;;;0.20;0.10;;;16.60;99.90;;;;;;20746671;28;20280;-67
2021/11/27 12:54:30;;;;;;;0.20;0.20;;;14.30;99.90;;;;;;20739955;28;20683;-68
2021/11/27 13:04:36;;;;;;;0.20;0.10;;;17.10;99.90;;;;;;20743973;28;20330;-68
2021/11/27 13:14:41;;;;;;;0.20;0.10;;;15.10;99.90;;;;;;20745048;28;20678;-67
2021/11/27 13:24:56;;;;;;;0.20;0.00;;;14.20;99.90;;;;;;20744311;28;20226;-67
2021/11/27 13:35:01;;;;;;;0.20;0.10;;;14.40;99.90;;;;;;20746295;28;20273;-69
2021/11/27 13:45:10;;;;;;;0.20;0.10;;;13.60;99.90;;;;;;20745021;28;20621;-68
2021/11/27 13:55:17;;;;;;;0.20;0.10;;;13.30;99.90;;;;;;20743088;28;20199;-68
2021/11/27 14:05:27;;;;;;;0.20;0.10;;;13.40;99.90;;;;;;20740630;28;20245;-68
2021/11/27 14:15:39;;;;;;;0.20;0.10;;;13.40;99.90;;;;;;20740021;28;20199;-67
2021/11/27 14:25:44;;;;;;;0.20;0.10;;;14.10;99.90;;;;;;20741472;28;20326;-68
2021/11/27 14:36:01;;;;;;;0.20;0.10;;;13.40;99.90;;;;;;20737614;28;20267;-68
2021/11/27 14:46:06;;;;;;;0.20;0.10;;;13.10;99.90;;;;;;20734294;28;20242;-68
2021/11/27 14:56:11;;;;;;;0.20;0.10;;;13.20;99.90;;;;;;20734671;28;20194;-67
2021/11/27 15:06:15;;;;;;;0.20;0.10;;;13.00;99.90;;;;;;20737241;28;20241;-67
2021/11/27 15:16:20;;;;;;;0.20;0.10;;;12.90;99.90;;;;;;20735242;28;20404;-66
2021/11/27 15:26:23;;;;;;;0.20;0.10;;;12.80;99.90;;;;;;20735781;28;20323;-66
2021/11/27 15:36:29;;;;;;;0.20;0.10;;;12.80;99.90;;;;;;20735467;28;20747;-67
2021/11/27 15:46:33;;;;;;;0.20;0.10;;;12.60;99.90;;;;;;20734848;28;20229;-67
2021/11/27 15:56:39;;;;;;;0.20;0.10;;;12.40;99.90;;;;;;20732784;28;20245;-67
2021/11/27 16:06:44;;;;;;;0.20;0.10;;;12.30;99.90;;;;;;20733759;28;20723;-67
2021/11/27 16:16:49;;;;;;;0.20;0.10;;;11.90;99.90;;;;;;20733351;28;20222;-66
2021/11/27 16:26:53;;;;;;;0.20;0.10;;;11.80;99.90;;;;;;20732607;28;20236;-70
2021/11/27 16:36:59;;;;;;;0.20;0.10;;;11.80;99.90;;;;;;20732306;28;20971;-66
2021/11/27 16:47:02;;;;;;;0.20;0.10;;;11.40;99.90;;;;;;20731489;28;20336;-68
2021/11/27 16:57:08;;;;;;;0.20;0.10;;;11.30;99.90;;;;;;20729397;28;20222;-66
2021/11/27 17:07:11;;;;;;;0.20;0.10;;;11.20;99.90;;;;;;20739922;28;20583;-67
2021/11/27 17:17:16;;;;;;;0.20;0.10;;;11.10;99.90;;;;;;20742880;28;20203;-68
2021/11/27 17:27:20;;;;;;;0.20;0.10;;;10.90;99.90;;;;;;20740835;28;20586;-68
2021/11/27 17:37:27;;;;;;;0.20;0.10;;;10.70;99.90;;;;;;20743314;28;20205;-70
2021/11/27 17:47:31;;;;;;;0.20;0.10;;;10.50;99.90;;;;;;20741927;28;20217;-68
2021/11/27 17:57:36;;;;;;;0.20;0.10;;;10.40;99.90;;;;;;20740635;28;20199;-69
2021/11/27 18:07:39;;;;;;;0.20;0.10;;;10.40;99.90;;;;;;20741910;28;20238;-69
2021/11/27 18:17:44;;;;;;;0.20;0.10;;;10.10;99.90;;;;;;20732428;28;20720;-69
2021/11/27 18:27:49;;;;;;;0.20;0.10;;;10.20;99.90;;;;;;20736453;28;20225;-67
2021/11/27 18:37:54;;;;;;;0.20;0.10;;;10.00;99.90;;;;;;20736027;28;20299;-68
2021/11/27 18:48:01;;;;;;;0.20;0.10;;;9.60;99.90;;;;;;20740132;28;20285;-68
2021/11/27 18:58:06;;;;;;;0.20;0.10;;;9.40;99.90;;;;;;20735392;28;20553;-68
2021/11/27 19:08:09;;;;;;;0.20;0.10;;;9.40;99.90;;;;;;20733500;28;20321;-68
2021/11/27 19:18:14;;;;;;;0.20;0.10;;;9.00;99.90;;;;;;20734211;28;20748;-68
2021/11/27 19:28:18;;;;;;;0.20;0.10;;;8.60;99.90;;;;;;20732942;28;20301;-68
2021/11/27 19:38:23;;;;;;;0.20;0.10;;;8.40;99.90;;;;;;20731410;28;20629;-68
2021/11/27 19:48:27;;;;;;;0.20;0.10;;;8.40;99.90;;;;;;20732958;28;20225;-68
2021/11/27 19:58:32;;;;;;;0.20;0.10;;;8.30;99.90;;;;;;20734142;28;20290;-69
2021/11/27 20:08:36;;;;;;;0.20;0.20;;;8.30;99.90;;;;;;20735611;28;20226;-68
2021/11/27 20:18:42;;;;;;;0.20;0.10;;;7.80;99.90;;;;;;20733464;28;20203;-68
2021/11/27 20:28:46;;;;;;;0.20;0.10;;;7.90;99.90;;;;;;20731403;28;20317;-70
2021/11/27 20:38:51;;;;;;;0.20;0.10;;;7.80;99.90;;;;;;20741513;28;20223;-69
2021/11/27 20:48:57;;;;;;;0.20;0.10;;;7.70;99.90;;;;;;20748909;28;20781;-72
2021/11/27 20:59:02;;;;;;;0.20;0.10;;;7.70;99.90;;;;;;20747136;28;20314;-69
2021/11/27 21:09:06;;;;;;;0.20;0.10;;;7.70;99.90;;;;;;20746909;28;20223;-69
2021/11/27 21:19:13;;;;;;;0.20;0.10;;;7.60;99.90;;;;;;20746383;28;20199;-69
2021/11/27 21:29:16;;;;;;;0.20;0.10;;;7.20;99.90;;;;;;20746999;28;20226;-69
2021/11/27 21:39:21;;;;;;;0.20;0.10;;;6.70;99.90;;;;;;20745679;28;20234;-69
2021/11/27 21:49:25;;;;;;;0.20;0.10;;;6.70;99.90;;;;;;20745191;28;20560;-69
2021/11/27 21:59:30;;;;;;;2.33;2.20;;;6.40;99.90;;;;;;20743292;28;20619;-70
2021/11/27 22:09:34;;;;;;;0.20;0.10;;;6.40;99.90;;;;;;20742812;28;20724;-70
2021/11/27 22:19:39;;;;;;;0.20;0.10;;;6.70;99.90;;;;;;20743905;28;20406;-73
2021/11/27 22:29:42;;;;;;;0.20;0.20;;;6.80;99.90;;;;;;20743260;28;20243;-73
2021/11/27 22:39:48;;;;;;;0.20;0.10;;;6.90;99.90;;;;;;20742420;28;20209;-72
2021/11/27 22:49:52;;;;;;;0.20;0.17;;;6.60;99.90;;;;;;20742407;28;20233;-72
2021/11/27 22:59:57;;;;;;;0.20;0.10;;;6.60;99.90;;;;;;20739830;28;20201;-70
2021/11/27 23:10:01;;;;;;;0.20;0.10;;;6.70;99.90;;;;;;20738909;28;20699;-70
2021/11/27 23:20:18;;;;;;;0.20;0.10;;;6.50;99.90;;;;;;20738824;28;20191;-69
2021/11/27 23:30:21;;;;;;;0.20;0.10;;;6.40;99.90;;;;;;20738317;28;20323;-69
2021/11/27 23:40:27;;;;;;;0.20;0.10;;;6.20;99.90;;;;;;20736893;28;20210;-69
2021/11/27 23:50:30;;;;;;;0.20;0.10;;;6.30;99.90;;;;;;20736078;28;20261;-68
